Mantorville, MN

6:18 PM CDT on March 26, 2015 (GMT -0500)
NE Kasson | | Change Station
CLOSE
Current Station
Personal Weather Station
Location: Kasson, MN
Elevation: 1220 ft
Nearby Weather Stations

Elev 1220 ft 44.05 °N, 92.74 °W | Updated 6 seconds ago

Overcast
Overcast
32.4 °F
Feels Like 26 °F
N
7.4
Wind Variable Wind from NNW
Gusts 12.3 mph

Today
High -- | Low -- °F
--% Chance of Precip.
Yesterday
High -- | Low -- °F
Precip. -- in
7:03 AM 7:30 PM
Waxing Crescent, 46% visible
Pressure 30.08 in
Visibility 10.0 miles
Clouds Overcast 4400 ft
Windchill 26 °F
Dew Point 17 °F
Humidity 53%
Rainfall 0.00 in
Snow Depth Not available.
UV 0.0 out of 12
Pollen 1.60 out of 12
Air Quality Not available.
Flu Activity Not available.
METAR KTOB 262314Z AUTO 31010G17KT 10SM OVC044 M01/M05 A3008 RMK AO2

More Conditions Fewer Conditions

Pressure 30.08 in
Visibility 10.0 miles
Clouds Overcast 4400 ft
Windchill 26 °F
Dew Point 17 °F
Humidity 53%
Rainfall 0.00 in
Snow Depth Not available.
UV 0.0 out of 12
Pollen 1.60 out of 12
Air Quality Not available.
Flu Activity Not available.
METAR KTOB 262314Z AUTO 31010G17KT 10SM OVC044 M01/M05 A3008 RMK AO2

More Conditions Fewer Conditions

10-Day Weather Forecast

Almanac

Astronomy

Mar. 26, 2015 Rise Set
Actual Time
Civil Twilight
Nautical Twilight
Astronomical Twilight
Moon
Length of Visible Light
Length of Day
Tomorrow will be .
, % of the Moon is Illuminated

Today's Extremes

State Highs State Lows

Community

WunderPhotos

Upload Photos

1,808,633 photos uploaded!

WunderBlogs® & News

Nearby

Air Quality

  Air Quality AQ Index Pollutant
Not available.

Snow Depth

Station Depth Elevation

Earthquake Activity

City Distance Mag. Time & Date
Minimum magnitude displayed is 2.5.

Coastal Water Temperatures

Place Temperature

Stations

Nearby Weather Stations

Station Location Temp. Windchill Dew Point Humidity Wind Precip. Elev Updated Type